Check out our new BloomSky Weather System.

Active alerts


No alerts


Thunder radar  blitzortung!


Rain radar more information rain snow radar


Visit our other weather sites:

Template documentation
and downloads

And another site



Weather Underground History page Text

Daily Summary for March 12, 2017 Units:  English    Metric   Both
« Previous Day
Next Day »
Daily Weekly Monthly Yearly Custom
  High: Low: Average:
Temperature: 64.2 °F 47.7 °F 54.5 °F
Dew Point: 63.7 °F 45.1 °F 50.7 °F
Humidity: 98 % 74 % 87 %
Wind Speed: 13.0 mph 0.0 mph 2.7 mph
Wind Gust: 16.0 mph - -
Wind:- - SW
Pressure: 30.23 in 30.09 in -
Precipitation: 0.04 in    
Historical Graphs
 
 
Tabular Data for March 12, 2017
Time Temperature Dew Point Pressure Wind Wind Speed Wind Gust Humidity Rainfall Rate (Hourly)
00:04 64.2 °F 63.7 °F 30.09 in NNE 6.0 mph 6.0 mph 98 % 0.08 in
00:09 64.0 °F 63.5 °F 30.09 in SW 6.0 mph 6.0 mph 98 % 0.09 in
00:14 63.9 °F 63.3 °F 30.09 in Calm   11.0 mph 98 % 0.11 in
00:19 63.9 °F 63.3 °F 30.10 in WSW 3.0 mph 11.0 mph 98 % 0.12 in
00:24 63.5 °F 63.0 °F 30.10 in NE 7.0 mph 11.0 mph 98 % 0.12 in
00:29 63.0 °F 62.1 °F 30.10 in North 2.0 mph 11.0 mph 97 % 0.12 in
00:34 62.2 °F 61.3 °F 30.10 in NW 5.0 mph 11.0 mph 97 % 0.11 in
00:39 61.9 °F 61.0 °F 30.11 in NNW 5.0 mph 12.0 mph 97 % 0.11 in
00:44 61.3 °F 60.4 °F 30.11 in North 5.0 mph 12.0 mph 97 % 0.10 in
00:49 61.0 °F 60.1 °F 30.11 in North 6.0 mph 12.0 mph 97 % 0.05 in
00:54 60.3 °F 59.2 °F 30.12 in NW 4.0 mph 11.0 mph 96 % 0.04 in
00:59 59.7 °F 58.8 °F 30.12 in NW 7.0 mph 11.0 mph 97 % 0.04 in
01:04 59.2 °F 58.1 °F 30.12 in North 7.0 mph 11.0 mph 96 % 0.04 in
01:09 58.8 °F 57.7 °F 30.12 in NW 6.0 mph 13.0 mph 96 % 0.03 in
01:14 58.6 °F 57.6 °F 30.12 in WNW 3.0 mph 13.0 mph 96 % 0.01 in
01:20 58.3 °F 57.2 °F 30.12 in North 5.0 mph 13.0 mph 96 % 0.00 in
01:25 58.1 °F 57.0 °F 30.11 in NNW 5.0 mph 13.0 mph 96 % 0.00 in
01:30 57.7 °F 56.7 °F 30.11 in North 6.0 mph 13.0 mph 96 % 0.00 in
01:35 57.4 °F 56.3 °F 30.11 in North 6.0 mph 12.0 mph 96 % 0.00 in
01:40 57.2 °F 56.1 °F 30.11 in Calm   14.0 mph 96 % 0.00 in
01:45 57.2 °F 56.1 °F 30.11 in NNW 2.0 mph 14.0 mph 96 % 0.00 in
01:50 57.0 °F 55.9 °F 30.11 in North 5.0 mph 14.0 mph 96 % 0.00 in
01:55 57.0 °F 55.9 °F 30.12 in NNW 5.0 mph 11.0 mph 96 % 0.00 in
03:00 56.7 °F 55.6 °F 30.11 in NW 2.0 mph -999.0 mph 96 % 0 in
03:05 56.5 °F 55.4 °F 30.11 in NNW 3.0 mph -999.0 mph 96 % 0 in
03:10 56.3 °F 55.2 °F 30.11 in East 2.0 mph -999.0 mph 96 % 0 in
03:15 56.1 °F 55.0 °F 30.10 in West 5.0 mph -999.0 mph 96 % 0 in
03:20 55.8 °F 54.7 °F 30.10 in NNE 2.0 mph -999.0 mph 96 % 0 in
03:25 55.6 °F 54.1 °F 30.10 in NNE 3.0 mph -999.0 mph 95 % 0 in
03:30 55.4 °F 54.3 °F 30.11 in Calm   -999.0 mph 96 % 0 in
03:35 55.2 °F 54.1 °F 30.11 in NE 5.0 mph -999.0 mph 96 % 0 in
03:40 55.0 °F 53.6 °F 30.11 in NNW 2.0 mph -999.0 mph 95 % 0 in
03:45 55.0 °F 53.6 °F 30.11 in WNW 4.0 mph -999.0 mph 95 % 0 in
03:50 54.7 °F 53.2 °F 30.11 in NE 13.0 mph -999.0 mph 95 % 0 in
03:55 54.5 °F 53.1 °F 30.11 in NNE 4.0 mph -999.0 mph 95 % 0 in
04:00 54.5 °F 53.1 °F 30.12 in NNW 4.0 mph -999.0 mph 95 % 0 in
04:05 54.5 °F 53.1 °F 30.12 in WNW 4.0 mph -999.0 mph 95 % 0 in
04:10 54.0 °F 52.3 °F 30.12 in North 9.0 mph -999.0 mph 94 % 0 in
04:15 53.4 °F 51.8 °F 30.12 in NW 6.0 mph -999.0 mph 94 % 0 in
04:20 53.1 °F 51.4 °F 30.13 in NNE 5.0 mph -999.0 mph 94 % 0 in
04:25 52.5 °F 50.9 °F 30.13 in NW 9.0 mph -999.0 mph 94 % 0 in
04:30 52.3 °F 50.7 °F 30.13 in NNW 3.0 mph -999.0 mph 94 % 0 in
04:35 52.2 °F 50.5 °F 30.13 in North 3.0 mph -999.0 mph 94 % 0 in
04:40 52.2 °F 50.7 °F 30.13 in West 1.0 mph -999.0 mph 95 % 0 in
04:45 52.2 °F 50.5 °F 30.13 in NNE 2.0 mph -999.0 mph 94 % 0 in
04:50 52.0 °F 50.4 °F 30.14 in North 7.0 mph -999.0 mph 94 % 0 in
04:55 51.6 °F 50.0 °F 30.14 in NNW 5.0 mph -999.0 mph 94 % 0 in
05:00 51.4 °F 49.8 °F 30.14 in WNW 2.0 mph -999.0 mph 94 % 0 in
05:05 51.3 °F 49.6 °F 30.14 in North 5.0 mph -999.0 mph 94 % 0 in
05:10 51.3 °F 49.6 °F 30.14 in NNE 4.0 mph -999.0 mph 94 % 0 in
05:15 51.1 °F 49.5 °F 30.14 in NNW 6.0 mph -999.0 mph 94 % 0 in
05:20 50.9 °F 49.3 °F 30.14 in North 6.0 mph -999.0 mph 94 % 0 in
05:30 50.7 °F 49.1 °F 30.15 in WNW 2.0 mph -999.0 mph 94 % 0 in
05:35 50.5 °F 48.9 °F 30.15 in NW 2.0 mph -999.0 mph 94 % 0 in
05:40 50.4 °F 48.7 °F 30.15 in WNW 7.0 mph -999.0 mph 94 % 0 in
05:45 50.4 °F 48.7 °F 30.15 in NW 3.0 mph -999.0 mph 94 % 0 in
05:50 50.2 °F 48.6 °F 30.15 in NW 3.0 mph -999.0 mph 94 % 0 in
05:56 50.2 °F 48.6 °F 30.15 in WNW 4.0 mph -999.0 mph 94 % 0 in
06:01 50.2 °F 48.6 °F 30.15 in North 3.0 mph -999.0 mph 94 % 0 in
06:06 50.0 °F 48.4 °F 30.16 in NE 5.0 mph -999.0 mph 94 % 0 in
06:11 50.0 °F 48.4 °F 30.16 in NW 4.0 mph -999.0 mph 94 % 0 in
06:16 50.2 °F 48.6 °F 30.17 in East 2.0 mph -999.0 mph 94 % 0 in
06:21 50.2 °F 48.6 °F 30.16 in NNW 4.0 mph -999.0 mph 94 % 0 in
06:26 50.0 °F 48.4 °F 30.17 in ENE 1.0 mph -999.0 mph 94 % 0 in
06:31 50.0 °F 48.4 °F 30.17 in WNW 4.0 mph -999.0 mph 94 % 0 in
06:36 49.8 °F 47.8 °F 30.17 in NNW 4.0 mph -999.0 mph 93 % 0 in
06:41 49.6 °F 47.7 °F 30.17 in NNW 4.0 mph -999.0 mph 93 % 0 in
06:46 49.6 °F 47.7 °F 30.17 in NNW 7.0 mph -999.0 mph 93 % 0 in
06:51 49.6 °F 47.7 °F 30.17 in NNW 1.0 mph -999.0 mph 93 % 0 in
06:56 49.8 °F 47.8 °F 30.17 in NNE 2.0 mph -999.0 mph 93 % 0 in
07:01 49.6 °F 47.7 °F 30.17 in NNE 6.0 mph -999.0 mph 93 % 0 in
07:06 49.6 °F 47.7 °F 30.18 in West 4.0 mph -999.0 mph 93 % 0 in
07:11 49.6 °F 47.7 °F 30.18 in North 1.0 mph -999.0 mph 93 % 0 in
07:16 49.6 °F 47.7 °F 30.19 in NNW 1.0 mph -999.0 mph 93 % 0 in
07:21 49.6 °F 47.7 °F 30.19 in NNW 5.0 mph -999.0 mph 93 % 0 in
07:26 49.5 °F 47.5 °F 30.19 in Calm   -999.0 mph 93 % 0 in
07:31 49.5 °F 47.5 °F 30.19 in WNW 5.0 mph -999.0 mph 93 % 0 in
07:36 49.3 °F 47.3 °F 30.20 in North 4.0 mph -999.0 mph 93 % 0 in
07:41 49.1 °F 47.1 °F 30.20 in NE 7.0 mph -999.0 mph 93 % 0 in
07:46 48.9 °F 46.9 °F 30.20 in NW 4.0 mph -999.0 mph 93 % 0 in
07:51 48.7 °F 46.8 °F 30.20 in North 5.0 mph -999.0 mph 93 % 0 in
07:56 48.7 °F 46.8 °F 30.20 in NNW 7.0 mph -999.0 mph 93 % 0 in
08:01 48.7 °F 46.8 °F 30.20 in NNE 5.0 mph -999.0 mph 93 % 0 in
08:06 48.7 °F 46.8 °F 30.20 in NW 6.0 mph -999.0 mph 93 % 0 in
08:11 48.6 °F 46.6 °F 30.20 in WNW 7.0 mph -999.0 mph 93 % 0 in
08:16 48.6 °F 46.6 °F 30.20 in NW 5.0 mph 15.0 mph 93 % 0 in
08:21 48.6 °F 46.4 °F 30.20 in WNW 2.0 mph 14.0 mph 92 % 0 in
08:26 48.4 °F 46.2 °F 30.21 in NNE 6.0 mph 14.0 mph 92 % 0 in
08:31 48.4 °F 46.2 °F 30.21 in NNW 10.0 mph 13.0 mph 92 % 0 in
08:41 48.4 °F 46.2 °F 30.21 in SW 1.0 mph 11.0 mph 92 % 0 in
08:46 48.4 °F 46.2 °F 30.22 in NW 4.0 mph 11.0 mph 92 % 0 in
08:51 48.4 °F 46.2 °F 30.22 in Calm   9.0 mph 92 % 0 in
08:56 48.4 °F 46.2 °F 30.22 in NW 4.0 mph 9.0 mph 92 % 0 in
09:01 48.2 °F 46.0 °F 30.22 in North 4.0 mph 14.0 mph 92 % 0.00 in
09:06 48.0 °F 45.9 °F 30.22 in North 6.0 mph 16.0 mph 92 % 0.00 in
09:11 47.8 °F 45.3 °F 30.22 in WNW 3.0 mph 16.0 mph 91 % 0.00 in
09:16 47.8 °F 45.3 °F 30.22 in WNW 3.0 mph 16.0 mph 91 % 0.00 in
09:21 47.8 °F 45.7 °F 30.22 in NNE 6.0 mph 14.0 mph 92 % 0.00 in
09:26 48.0 °F 45.5 °F 30.22 in NNW 2.0 mph 14.0 mph 91 % 0.00 in
09:31 47.8 °F 45.3 °F 30.22 in NW 4.0 mph 8.0 mph 91 % 0.00 in
09:36 48.0 °F 45.9 °F 30.23 in North 2.0 mph 10.0 mph 92 % 0.00 in
09:41 47.8 °F 45.3 °F 30.23 in NW 4.0 mph 14.0 mph 91 % 0.00 in
09:46 47.8 °F 45.3 °F 30.23 in North 5.0 mph 14.0 mph 91 % 0.00 in
09:52 47.7 °F 45.1 °F 30.23 in South 2.0 mph 14.0 mph 91 % 0.00 in
09:58 47.7 °F 45.1 °F 30.23 in NNE 2.0 mph 14.0 mph 91 % 0.00 in
12:32 48.7 °F 45.7 °F 30.22 in WNW 4.0 mph 7.0 mph 89 % 0.00 in
12:37 49.1 °F 46.2 °F 30.22 in NE 4.0 mph 9.0 mph 90 % 0.00 in
12:45 49.6 °F 46.6 °F 30.22 in North 1.0 mph 9.0 mph 89 % 0.00 in
12:46 49.6 °F 46.6 °F 30.22 in East 4.0 mph 9.0 mph 89 % 0.00 in
12:51 49.6 °F 46.2 °F 30.22 in NNE 1.0 mph 8.0 mph 88 % 0.00 in
12:56 49.8 °F 46.4 °F 30.21 in Calm   9.0 mph 88 % 0.00 in
13:01 50.2 °F 46.8 °F 30.21 in NE 3.0 mph 9.0 mph 88 % 0.00 in
13:07 50.4 °F 46.6 °F 30.21 in NNE 3.0 mph 9.0 mph 87 % 0.00 in
13:12 50.4 °F 46.6 °F 30.20 in NNW 3.0 mph 10.0 mph 87 % 0.00 in
13:17 50.5 °F 46.8 °F 30.20 in SSW 2.0 mph 10.0 mph 87 % 0.00 in
13:22 51.1 °F 47.3 °F 30.20 in ENE 1.0 mph 10.0 mph 87 % 0.00 in
13:27 51.4 °F 47.5 °F 30.19 in NW 1.0 mph 10.0 mph 86 % 0.00 in
13:32 51.8 °F 47.7 °F 30.19 in ENE 4.0 mph 8.0 mph 86 % 0.00 in
13:37 52.2 °F 48.0 °F 30.19 in North 1.0 mph 9.0 mph 86 % 0.00 in
13:42 52.7 °F 48.4 °F 30.19 in North 4.0 mph 9.0 mph 85 % 0.00 in
13:47 52.9 °F 48.2 °F 30.19 in NNW 6.0 mph 9.0 mph 84 % 0.00 in
13:52 53.1 °F 48.0 °F 30.19 in WNW 1.0 mph 9.0 mph 83 % 0.00 in
13:57 53.4 °F 48.4 °F 30.19 in NNW 5.0 mph 9.0 mph 83 % 0.00 in
14:02 53.8 °F 48.7 °F 30.19 in ENE 3.0 mph 9.0 mph 83 % 0.00 in
14:12 54.1 °F 48.7 °F 30.18 in ESE 2.0 mph 8.0 mph 82 % 0.00 in
14:17 54.7 °F 49.3 °F 30.18 in NW 2.0 mph 6.0 mph 82 % 0.00 in
14:22 54.9 °F 48.7 °F 30.18 in ESE 1.0 mph 6.0 mph 80 % 0.00 in
14:27 54.7 °F 48.6 °F 30.18 in North 1.0 mph 8.0 mph 80 % 0.00 in
14:32 54.7 °F 48.9 °F 30.17 in ENE 1.0 mph 8.0 mph 81 % 0.00 in
14:37 55.2 °F 49.5 °F 30.17 in NNW 2.0 mph 8.0 mph 81 % 0.00 in
14:42 55.2 °F 49.1 °F 30.17 in WNW 1.0 mph 7.0 mph 80 % 0.00 in
14:47 55.2 °F 48.7 °F 30.17 in ENE 4.0 mph 7.0 mph 79 % 0.00 in
14:52 55.2 °F 49.1 °F 30.17 in NW 3.0 mph 7.0 mph 80 % 0.00 in
14:57 55.6 °F 49.5 °F 30.16 in ENE 6.0 mph 7.0 mph 80 % 0.00 in
15:02 55.9 °F 49.5 °F 30.16 in NE 2.0 mph 7.0 mph 79 % 0.00 in
15:07 56.1 °F 49.6 °F 30.15 in ENE 5.0 mph 7.0 mph 79 % 0.00 in
15:12 56.7 °F 50.2 °F 30.15 in North 3.0 mph 7.0 mph 79 % 0.00 in
15:17 57.0 °F 50.5 °F 30.14 in East 1.0 mph 7.0 mph 79 % 0.00 in
15:22 57.6 °F 50.4 °F 30.14 in North 4.0 mph 7.0 mph 77 % 0.00 in
15:27 57.4 °F 49.8 °F 30.14 in NW 6.0 mph 9.0 mph 76 % 0.00 in
15:33 57.4 °F 50.5 °F 30.14 in North 6.0 mph 9.0 mph 78 % 0.00 in
15:38 57.6 °F 50.4 °F 30.14 in NE 2.0 mph 9.0 mph 77 % 0.00 in
15:43 57.4 °F 49.8 °F 30.14 in NNW 1.0 mph 9.0 mph 76 % 0.00 in
15:48 57.6 °F 50.4 °F 30.14 in NW 2.0 mph 9.0 mph 77 % 0.00 in
15:53 57.6 °F 50.0 °F 30.14 in NW 2.0 mph 10.0 mph 76 % 0.00 in
15:58 57.6 °F 50.0 °F 30.14 in ENE 4.0 mph 10.0 mph 76 % 0.00 in
16:03 57.9 °F 50.7 °F 30.14 in Calm   10.0 mph 77 % 0.00 in
16:08 58.3 °F 51.1 °F 30.14 in East 1.0 mph 7.0 mph 77 % 0.00 in
16:18 58.1 °F 50.2 °F 30.14 in NW 4.0 mph 8.0 mph 75 % 0.00 in
16:23 58.3 °F 51.1 °F 30.14 in ENE 1.0 mph 8.0 mph 77 % 0.00 in
16:28 58.6 °F 51.4 °F 30.14 in NNW 1.0 mph 8.0 mph 77 % 0.00 in
16:33 58.5 °F 50.9 °F 30.14 in North 6.0 mph 7.0 mph 76 % 0.00 in
16:38 58.6 °F 51.1 °F 30.14 in NE 3.0 mph 7.0 mph 76 % 0.00 in
16:43 58.6 °F 51.1 °F 30.13 in NW 5.0 mph 7.0 mph 76 % 0.00 in
16:48 58.8 °F 50.9 °F 30.13 in WNW 3.0 mph 7.0 mph 75 % 0.00 in
16:53 59.0 °F 50.7 °F 30.13 in NW 3.0 mph 7.0 mph 74 % 0.00 in
16:58 58.8 °F 50.9 °F 30.13 in NNW 5.0 mph 7.0 mph 75 % 0.00 in
17:03 58.5 °F 50.5 °F 30.13 in NNW 2.0 mph 7.0 mph 75 % 0.00 in
17:08 58.5 °F 50.5 °F 30.13 in NW 3.0 mph 6.0 mph 75 % 0.00 in
17:13 58.5 °F 50.9 °F 30.12 in Calm   6.0 mph 76 % 0.00 in
17:18 58.6 °F 50.7 °F 30.12 in West 2.0 mph 5.0 mph 75 % 0.00 in
17:23 59.0 °F 51.1 °F 30.12 in WNW 7.0 mph 8.0 mph 75 % 0.00 in
17:28 59.0 °F 50.7 °F 30.12 in NW 4.0 mph 8.0 mph 74 % 0.00 in
17:33 58.8 °F 50.9 °F 30.11 in NNW 4.0 mph 8.0 mph 75 % 0.00 in
17:38 59.2 °F 51.3 °F 30.11 in NW 4.0 mph 8.0 mph 75 % 0.00 in
17:43 58.8 °F 50.9 °F 30.10 in North 1.0 mph 8.0 mph 75 % 0.00 in
17:48 59.2 °F 51.6 °F 30.10 in NW 3.0 mph 5.0 mph 76 % 0.00 in
17:49 59.2 °F 51.6 °F 30.10 in NNE 2.0 mph 5.0 mph 76 % 0.00 in
17:53 59.5 °F 51.6 °F 30.10 in NW 4.0 mph 5.0 mph 75 % 0.00 in
17:58 59.5 °F 51.3 °F 30.10 in WNW 2.0 mph 6.0 mph 74 % 0.00 in
18:01 59.5 °F 51.3 °F 30.10 in North 6.0 mph 6.0 mph 74 % 0.00 in
18:06 59.5 °F 51.3 °F 30.10 in NW 3.0 mph 6.0 mph 74 % 0.00 in
18:11 59.4 °F 51.4 °F 30.10 in NW 3.0 mph 6.0 mph 75 % 0.00 in
18:16 59.2 °F 51.3 °F 30.10 in NNW 2.0 mph 6.0 mph 75 % 0.00 in
18:21 59.2 °F 51.3 °F 30.10 in NNW 3.0 mph 6.0 mph 75 % 0.00 in
18:26 58.8 °F 51.3 °F 30.10 in NNW 1.0 mph 6.0 mph 76 % 0.00 in
18:31 59.0 °F 51.1 °F 30.10 in Calm   6.0 mph 75 % 0.00 in
18:36 59.0 °F 51.1 °F 30.10 in Calm   4.0 mph 75 % 0.00 in
18:41 59.0 °F 51.1 °F 30.10 in Calm   3.0 mph 75 % 0.00 in
18:46 59.0 °F 51.4 °F 30.10 in NW 1.0 mph 4.0 mph 76 % 0.00 in
18:51 58.8 °F 51.3 °F 30.10 in NW 1.0 mph 4.0 mph 76 % 0.00 in
18:56 58.6 °F 51.4 °F 30.10 in Calm   4.0 mph 77 % 0.00 in
18:58 58.6 °F 51.4 °F 30.10 in Calm   4.0 mph 77 % 0.00 in
19:03 58.5 °F 51.3 °F 30.11 in WNW 1.0 mph 4.0 mph 77 % 0.00 in
19:08 58.3 °F 51.4 °F 30.11 in Calm   4.0 mph 78 % 0.00 in
19:13 58.1 °F 51.3 °F 30.11 in Calm   2.0 mph 78 % 0.00 in
19:18 57.9 °F 51.1 °F 30.11 in Calm   1.0 mph 78 % 0.00 in
19:23 57.7 °F 50.9 °F 30.11 in Calm   1.0 mph 78 % 0.00 in
19:28 57.6 °F 51.1 °F 30.11 in Calm   1.0 mph 79 % 0.00 in
19:33 57.4 °F 51.6 °F 30.11 in SW 1.0 mph 1.0 mph 81 % 0.00 in
19:38 57.0 °F 51.6 °F 30.12 in Calm   2.0 mph 82 % 0.00 in
19:43 56.8 °F 51.4 °F 30.12 in Calm   2.0 mph 82 % 0.00 in
19:48 56.7 °F 51.6 °F 30.12 in Calm   2.0 mph 83 % 0.00 in
19:53 56.5 °F 51.4 °F 30.12 in Calm   2.0 mph 83 % 0.00 in
19:58 56.1 °F 51.4 °F 30.12 in Calm   3.0 mph 84 % 0.00 in
20:03 56.1 °F 51.4 °F 30.12 in Calm   3.0 mph 84 % 0.00 in
20:08 55.9 °F 51.3 °F 30.12 in Calm   3.0 mph 84 % 0.00 in
20:13 55.8 °F 51.3 °F 30.12 in West 1.0 mph 2.0 mph 85 % 0.00 in
20:18 55.6 °F 51.1 °F 30.12 in Calm   2.0 mph 85 % 0.00 in
20:23 55.6 °F 51.1 °F 30.12 in Calm   2.0 mph 85 % 0.00 in
20:28 55.4 °F 50.9 °F 30.12 in Calm   2.0 mph 85 % 0.00 in
20:33 55.2 °F 51.1 °F 30.12 in West 1.0 mph 2.0 mph 86 % 0.00 in
20:38 55.2 °F 51.1 °F 30.12 in WSW 1.0 mph 2.0 mph 86 % 0.00 in
20:43 55.2 °F 51.1 °F 30.12 in WNW 1.0 mph 2.0 mph 86 % 0.00 in
20:48 55.2 °F 51.1 °F 30.12 in Calm   3.0 mph 86 % 0.00 in
20:53 55.2 °F 51.1 °F 30.12 in NW 1.0 mph 3.0 mph 86 % 0.00 in
20:58 55.2 °F 51.1 °F 30.12 in Calm   3.0 mph 86 % 0.00 in
21:03 55.2 °F 51.1 °F 30.13 in Calm   3.0 mph 86 % 0.00 in
21:08 55.2 °F 51.1 °F 30.13 in WSW 1.0 mph 3.0 mph 86 % 0.00 in
21:13 55.2 °F 51.1 °F 30.13 in Calm   3.0 mph 86 % 0.00 in
21:18 55.2 °F 51.1 °F 30.13 in Calm   3.0 mph 86 % 0.00 in
21:23 55.2 °F 51.1 °F 30.12 in NW 1.0 mph 3.0 mph 86 % 0.00 in
21:28 55.2 °F 51.1 °F 30.12 in Calm   3.0 mph 86 % 0.00 in
21:33 55.2 °F 51.1 °F 30.13 in Calm   3.0 mph 86 % 0.00 in
21:38 55.2 °F 51.1 °F 30.12 in NW 1.0 mph 2.0 mph 86 % 0.00 in
21:43 55.2 °F 51.1 °F 30.12 in Calm   3.0 mph 86 % 0.00 in
21:48 55.0 °F 50.9 °F 30.12 in Calm   3.0 mph 86 % 0.00 in
21:53 55.0 °F 50.9 °F 30.12 in NNW 1.0 mph 3.0 mph 86 % 0.00 in
21:58 55.0 °F 50.9 °F 30.12 in Calm   3.0 mph 86 % 0.00 in
22:03 55.0 °F 50.9 °F 30.12 in WNW 1.0 mph 3.0 mph 86 % 0.00 in
22:08 55.0 °F 50.9 °F 30.12 in WNW 1.0 mph 3.0 mph 86 % 0.00 in
22:13 55.0 °F 50.9 °F 30.12 in WSW 1.0 mph 3.0 mph 86 % 0.00 in
22:18 55.0 °F 50.9 °F 30.11 in NNW 1.0 mph 3.0 mph 86 % 0.00 in
22:23 54.9 °F 51.1 °F 30.11 in NW 1.0 mph 4.0 mph 87 % 0.00 in
22:28 54.9 °F 51.1 °F 30.10 in NW 1.0 mph 4.0 mph 87 % 0.00 in
22:33 54.7 °F 50.9 °F 30.10 in NW 2.0 mph 4.0 mph 87 % 0.00 in
22:38 54.5 °F 50.7 °F 30.11 in NNW 2.0 mph 3.0 mph 87 % 0.00 in
22:43 54.3 °F 50.9 °F 30.11 in Calm   3.0 mph 88 % 0.00 in
22:48 54.1 °F 50.7 °F 30.11 in Calm   3.0 mph 88 % 0.00 in
22:53 54.0 °F 50.5 °F 30.10 in Calm   2.0 mph 88 % 0.00 in
22:59 54.0 °F 50.7 °F 30.10 in Calm   2.0 mph 89 % 0.00 in
23:04 53.8 °F 50.5 °F 30.10 in WNW 1.0 mph 1.0 mph 89 % 0.00 in
23:09 53.8 °F 50.5 °F 30.10 in Calm   2.0 mph 89 % 0.00 in
23:14 53.6 °F 50.4 °F 30.10 in Calm   2.0 mph 89 % 0.00 in
23:19 53.4 °F 50.2 °F 30.10 in Calm   2.0 mph 89 % 0.00 in
23:24 53.2 °F 50.4 °F 30.10 in Calm   2.0 mph 90 % 0.00 in
23:29 53.2 °F 50.4 °F 30.10 in Calm   2.0 mph 90 % 0.00 in
23:34 53.2 °F 50.4 °F 30.09 in NW 1.0 mph 2.0 mph 90 % 0.00 in
23:39 53.1 °F 50.2 °F 30.09 in Calm   2.0 mph 90 % 0.00 in
23:44 53.1 °F 50.2 °F 30.09 in NW 1.0 mph 2.0 mph 90 % 0.00 in
23:49 53.1 °F 50.2 °F 30.09 in Calm   2.0 mph 90 % 0.00 in
23:54 52.9 °F 50.4 °F 30.09 in NW 1.0 mph 1.0 mph 91 % 0.00 in
23:59 53.1 °F 50.5 °F 30.09 in WNW 1.0 mph 2.0 mph 91 % 0.00 in
Spring, Texas: Villages of Bridgestone
Compliments of Weather Underground - 2.5 mb

Script developed by  Jim McMurry - jmcmurry@mwt.net Adapted for the template by  Wim van der Kuil - Leuven-Template.eu

You find our weather info also at:

UK Metoffice

WeatherCloud

Weather Underground

Mid-South Weather Network

AWEKAS

Citizen Weather Observer Program (CWOP)

HAMweather, WeatherForYou, PWS Weather

Equipment we use:

Weather-station
Davis Vantage Vue

Weather-program
Meteohub

Weather-server
Debian 7.9 x86 (Guest)

Provider
DreamHost

Davis Vantage Vue

Meteohub

Debian 7.9 x86 (Guest)

DreamHost